createdAt,value
2018-08-03T01:23:33.515Z,7.33
2018-08-03T01:26:02.357Z,7.40
2018-08-03T01:31:24.842Z,7.53
2018-08-03T01:34:00.730Z,7.43
2018-08-03T01:36:34.794Z,7.97
2018-08-03T01:39:06.176Z,6.60
2018-08-03T01:41:39.590Z,7.27
2018-08-03T01:44:08.539Z,7.70
2018-08-03T01:46:37.973Z,7.90
2018-08-03T01:49:07.420Z,7.57
2018-08-03T01:51:42.457Z,7.80
2018-08-03T01:54:19.349Z,7.40
2018-08-03T01:56:54.083Z,7.83
2018-08-03T01:59:23.537Z,6.93
2018-08-03T02:01:59.991Z,7.10
2018-08-03T02:04:34.429Z,6.90
2018-08-03T02:07:10.626Z,6.63
2018-08-03T02:09:40.521Z,7.23
2018-08-03T02:12:09.586Z,6.97
2018-08-03T02:14:50.349Z,7.33
2018-08-03T02:17:42.528Z,7.17
2018-08-03T02:20:18.074Z,7.40
2018-08-03T02:23:01.767Z,6.80
2018-08-03T02:25:31.236Z,7.60
2018-08-03T02:28:00.978Z,7.60
2018-08-03T02:30:30.406Z,6.70
2018-08-03T02:32:59.861Z,7.67
2018-08-03T02:35:29.545Z,7.37
2018-08-03T02:38:13.975Z,7.07
2018-08-03T02:40:45.542Z,8.27
2018-08-03T02:43:29.632Z,7.53
2018-08-03T02:45:59.376Z,7.70
2018-08-03T02:48:28.766Z,7.97
2018-08-03T02:51:28.826Z,7.50
2018-08-03T02:54:04.280Z,6.93
2018-08-03T02:56:38.220Z,8.67
2018-08-03T02:59:19.631Z,7.10
2018-08-03T03:01:54.550Z,6.93
2018-08-03T03:04:24.363Z,6.90
2018-08-03T03:07:00.813Z,7.20
2018-08-03T03:09:41.748Z,7.47
2018-08-03T03:12:21.938Z,7.83
2018-08-03T03:14:57.029Z,7.53
2018-08-03T03:17:30.895Z,7.40
2018-08-03T03:20:00.385Z,7.23
2018-08-03T03:22:38.789Z,6.87
2018-08-03T03:25:08.613Z,7.53
2018-08-03T03:27:44.814Z,7.30
2018-08-03T03:30:19.322Z,7.17
2018-08-03T03:35:41.687Z,6.50
2018-08-03T03:38:11.597Z,7.67
2018-08-03T03:40:45.565Z,7.47
2018-08-03T03:43:22.548Z,7.70
2018-08-03T03:46:01.240Z,7.10
2018-08-03T03:48:31.059Z,8.23
2018-08-03T03:51:07.830Z,8.20
2018-08-03T03:53:46.990Z,7.20
2018-08-03T03:56:16.754Z,8.43
2018-08-03T03:59:02.604Z,7.83
2018-08-03T04:04:34.478Z,7.50
2018-08-03T04:07:04.385Z,8.07
2018-08-03T04:09:45.681Z,8.27
2018-08-03T04:12:15.490Z,7.73
2018-08-03T04:14:44.398Z,8.20
2018-08-03T04:17:13.816Z,7.33
2018-08-03T04:19:42.973Z,8.20
2018-08-03T04:22:12.543Z,8.67
2018-08-03T04:24:49.390Z,8.10
2018-08-03T04:27:35.335Z,7.53
2018-08-03T04:30:05.559Z,8.30
2018-08-03T04:32:51.010Z,7.20
2018-08-03T04:35:20.939Z,7.87
2018-08-03T04:37:50.762Z,7.97
2018-08-03T04:40:29.903Z,8.00
2018-08-03T04:43:11.506Z,8.77
2018-08-03T04:45:47.496Z,8.20
2018-08-03T04:48:17.209Z,8.47
2018-08-03T04:50:46.643Z,10.40
2018-08-03T04:53:16.035Z,8.60
2018-08-03T04:55:45.757Z,7.83
2018-08-03T04:58:15.235Z,8.70
2018-08-03T05:00:49.905Z,7.50
2018-08-03T05:03:32.613Z,10.20
2018-08-03T05:06:18.119Z,8.90
2018-08-03T05:08:48.635Z,8.73
2018-08-03T05:11:17.527Z,8.47
2018-08-03T05:13:47.138Z,9.10
2018-08-03T05:16:17.057Z,9.53
2018-08-03T05:18:46.514Z,10.43
2018-08-03T05:21:15.527Z,10.37
2018-08-03T05:23:54.231Z,8.57
2018-08-03T05:26:38.729Z,9.77
2018-08-03T05:29:07.611Z,10.60
2018-08-03T05:31:49.846Z,10.70
2018-08-03T05:34:33.713Z,9.33
2018-08-03T05:37:03.573Z,9.20
2018-08-03T05:39:33.262Z,9.40
2018-08-03T05:42:02.765Z,8.77
2018-08-03T05:44:36.713Z,9.20
2018-08-03T05:47:12.339Z,9.50
2018-08-03T05:49:41.909Z,9.10
2018-08-03T05:52:23.280Z,9.70
2018-08-03T05:54:52.704Z,10.03
2018-08-03T05:57:29.897Z,10.03
2018-08-03T06:00:05.320Z,11.40
2018-08-03T06:02:34.853Z,10.70
2018-08-03T06:05:05.515Z,10.53
2018-08-03T06:07:34.976Z,12.23
2018-08-03T06:10:04.594Z,11.20
2018-08-03T06:12:46.244Z,10.47
2018-08-03T06:15:26.233Z,10.23
2018-08-03T06:18:06.550Z,9.30
2018-08-03T06:20:36.160Z,10.27
2018-08-03T06:23:13.729Z,10.30
2018-08-03T06:25:43.211Z,9.50
2018-08-03T06:28:12.785Z,9.93
2018-08-03T06:30:42.654Z,10.10
2018-08-03T06:33:20.436Z,11.10
2018-08-03T06:35:50.299Z,12.03
2018-08-03T06:38:19.963Z,9.03
2018-08-03T06:41:01.450Z,10.30
2018-08-03T06:43:31.460Z,10.73
2018-08-03T06:46:01.239Z,11.50
2018-08-03T06:49:11.509Z,10.40
2018-08-03T06:51:40.982Z,11.87
2018-08-03T06:54:10.838Z,10.67
2018-08-03T06:56:40.296Z,11.93
2018-08-03T06:59:09.799Z,12.20
2018-08-03T07:01:39.588Z,11.47
2018-08-03T07:04:08.998Z,11.60
2018-08-03T07:06:50.409Z,11.67
2018-08-03T07:09:20.118Z,12.50
2018-08-03T07:11:49.601Z,13.60
2018-08-03T07:14:19.196Z,11.93
2018-08-03T07:16:57.336Z,13.20
2018-08-03T07:22:18.954Z,13.30
2018-08-03T07:24:48.404Z,11.50
2018-08-03T07:27:31.710Z,12.97
2018-08-03T07:32:54.553Z,12.90
2018-08-03T07:35:24.618Z,14.43
2018-08-03T07:37:58.283Z,15.50
2018-08-03T07:40:30.044Z,13.17
2018-08-03T07:42:59.630Z,12.37
2018-08-03T07:45:29.138Z,14.47
2018-08-03T07:47:58.902Z,12.00
2018-08-03T07:50:34.333Z,12.70
2018-08-03T07:53:09.096Z,12.67
2018-08-03T07:55:44.603Z,11.67
2018-08-03T07:58:14.107Z,11.60
2018-08-03T08:00:44.046Z,11.30
2018-08-03T08:03:13.671Z,11.57
2018-08-03T08:05:43.288Z,10.47
2018-08-03T08:08:13.104Z,10.23
2018-08-03T08:10:51.744Z,13.00
2018-08-03T08:13:21.402Z,10.87
2018-08-03T08:15:57.151Z,11.20
2018-08-03T08:18:37.208Z,10.50
2018-08-03T08:21:07.146Z,10.03
2018-08-03T08:23:36.087Z,12.07
2018-08-03T08:26:05.580Z,11.30
2018-08-03T08:28:35.381Z,10.50
2018-08-03T08:31:04.854Z,10.20
2018-08-03T08:33:34.383Z,10.20
2018-08-03T08:36:04.182Z,10.60
2018-08-03T08:38:33.121Z,8.87
2018-08-03T08:41:02.688Z,10.20
2018-08-03T08:43:32.513Z,10.10
2018-08-03T08:46:02.091Z,10.20
2018-08-03T08:48:31.589Z,11.37
2018-08-03T08:51:01.437Z,11.43
2018-08-03T08:53:30.979Z,9.37
2018-08-03T08:56:13.860Z,12.30
2018-08-03T08:58:49.767Z,8.70
2018-08-03T09:01:24.815Z,9.40
2018-08-03T09:03:54.998Z,11.17
2018-08-03T09:06:24.687Z,10.40
2018-08-03T09:08:54.212Z,9.83
2018-08-03T09:11:24.166Z,10.40
2018-08-03T09:14:27.842Z,9.80
2018-08-03T09:16:58.026Z,10.53
2018-08-03T09:19:28.184Z,8.83
2018-08-03T09:22:03.648Z,10.57
2018-08-03T09:24:38.347Z,9.10
2018-08-03T09:27:15.278Z,9.77
2018-08-03T09:29:45.212Z,9.57
2018-08-03T09:32:15.218Z,9.10
2018-08-03T09:34:44.827Z,11.60
2018-08-03T09:37:14.834Z,9.80
2018-08-03T09:39:51.609Z,9.17
2018-08-03T09:45:00.466Z,8.37
2018-08-03T09:47:30.469Z,10.20
2018-08-03T09:50:00.470Z,9.50
2018-08-03T09:52:30.261Z,9.00
2018-08-03T09:55:00.565Z,9.17
2018-08-03T09:57:40.424Z,9.80
2018-08-03T10:00:32.351Z,8.67
2018-08-03T10:03:01.973Z,8.87
2018-08-03T10:05:32.023Z,9.53
2018-08-03T10:08:01.615Z,8.30
2018-08-03T10:10:34.795Z,9.20
2018-08-03T10:13:11.066Z,8.33
2018-08-03T10:16:52.363Z,8.33
2018-08-03T10:19:21.640Z,8.53
2018-08-03T10:21:59.070Z,8.67
2018-08-03T10:24:29.043Z,8.07
2018-08-03T10:27:03.572Z,8.50
2018-08-03T10:29:33.361Z,7.83
2018-08-03T10:32:03.942Z,7.90
2018-08-03T10:34:33.596Z,7.83
2018-08-03T10:37:29.762Z,8.63
2018-08-03T10:39:59.790Z,8.37
2018-08-03T10:42:29.073Z,8.00
2018-08-03T10:45:07.624Z,7.20
2018-08-03T10:47:37.640Z,6.90
2018-08-03T10:50:07.278Z,6.50
2018-08-03T10:52:36.863Z,7.67
2018-08-03T10:55:06.756Z,7.20
2018-08-03T10:57:36.276Z,6.63
2018-08-03T11:00:15.157Z,7.47
2018-08-03T11:02:45.358Z,6.77
2018-08-03T11:05:21.468Z,7.40
2018-08-03T11:07:51.650Z,6.43
2018-08-03T11:10:37.367Z,6.90
2018-08-03T11:13:07.718Z,7.00
2018-08-03T11:15:37.510Z,7.20
2018-08-03T11:18:22.072Z,6.40
2018-08-03T11:20:52.023Z,7.13
2018-08-03T11:23:21.905Z,6.33
2018-08-03T11:26:01.037Z,7.00
2018-08-03T11:28:43.403Z,5.73
2018-08-03T11:31:13.001Z,5.93
2018-08-03T11:33:42.996Z,5.53
2018-08-03T11:36:12.598Z,5.43
2018-08-03T11:38:55.671Z,5.63
2018-08-03T11:41:25.538Z,6.23
2018-08-03T11:43:55.026Z,5.70
2018-08-03T11:46:34.466Z,4.93
2018-08-03T11:49:05.515Z,5.50
2018-08-03T11:51:35.903Z,6.03
2018-08-03T11:54:14.152Z,5.50
2018-08-03T11:56:44.114Z,5.47
2018-08-03T11:59:13.641Z,5.60
2018-08-03T12:01:43.440Z,5.63
2018-08-03T12:04:13.236Z,5.80
2018-08-03T12:06:54.689Z,6.00
2018-08-03T12:09:25.138Z,6.03
2018-08-03T12:11:55.181Z,6.30
2018-08-03T12:14:37.426Z,6.27
2018-08-03T12:17:06.762Z,5.70
2018-08-03T12:19:40.394Z,5.60
2018-08-03T12:22:10.060Z,6.40
2018-08-03T12:24:39.750Z,5.40
2018-08-03T12:27:09.739Z,5.60
2018-08-03T12:29:39.944Z,5.90
2018-08-03T12:32:09.653Z,5.40
2018-08-03T12:34:39.471Z,8.07
2018-08-03T12:37:09.463Z,5.60
2018-08-03T12:39:38.987Z,4.87
2018-08-03T12:42:08.565Z,5.80
2018-08-03T12:44:38.465Z,5.90
2018-08-03T12:47:08.155Z,5.57
2018-08-03T12:49:38.331Z,6.20
2018-08-03T12:52:23.020Z,6.20
2018-08-03T12:54:52.076Z,5.50
2018-08-03T12:57:23.439Z,5.77
2018-08-03T13:00:00.392Z,6.77
2018-08-03T13:02:46.159Z,5.83
2018-08-03T13:05:15.822Z,5.93
2018-08-03T13:07:46.179Z,5.27
2018-08-03T13:10:15.971Z,6.13
2018-08-03T13:12:45.667Z,6.97
2018-08-03T13:15:22.248Z,5.90
2018-08-03T13:18:02.302Z,5.93
2018-08-03T13:20:32.421Z,5.70
2018-08-03T13:23:06.642Z,5.73
2018-08-03T13:25:35.617Z,5.80
2018-08-03T13:28:05.003Z,5.87
2018-08-03T13:30:34.021Z,5.40
2018-08-03T13:33:09.134Z,6.40
2018-08-03T13:35:38.696Z,5.57
2018-08-03T13:38:07.824Z,5.97
2018-08-03T13:40:47.225Z,5.80
2018-08-03T13:43:36.306Z,5.23
2018-08-03T13:46:10.865Z,5.37
2018-08-03T13:48:40.236Z,5.67
2018-08-03T13:51:09.781Z,5.40
2018-08-03T13:53:52.108Z,6.40
2018-08-03T13:56:29.069Z,5.67
2018-08-03T13:58:58.029Z,5.40
2018-08-03T14:01:32.475Z,6.00
2018-08-03T14:04:01.808Z,5.80
2018-08-03T14:06:43.642Z,5.80
2018-08-03T14:11:54.644Z,5.43
2018-08-03T14:17:08.453Z,6.13
2018-08-03T14:19:37.640Z,5.67
2018-08-03T14:22:06.652Z,6.30
2018-08-03T14:24:42.844Z,5.93
2018-08-03T14:27:12.883Z,6.10
2018-08-03T14:29:42.128Z,5.90
2018-08-03T14:32:23.218Z,5.97
2018-08-03T14:34:53.600Z,6.30
2018-08-03T14:37:23.865Z,6.27
2018-08-03T14:39:52.971Z,5.53
2018-08-03T14:42:22.074Z,5.63
2018-08-03T14:44:51.628Z,5.70
2018-08-03T14:47:20.712Z,5.50
2018-08-03T14:58:10.557Z,6.07
2018-08-03T15:00:39.449Z,5.33
2018-08-03T15:03:08.446Z,5.87
2018-08-03T15:05:37.785Z,5.50
2018-08-03T15:08:06.810Z,5.37
2018-08-03T15:13:21.769Z,5.67
2018-08-03T15:15:55.389Z,5.10
2018-08-03T15:18:31.259Z,5.20
2018-08-03T15:21:06.572Z,5.23
2018-08-03T15:23:37.997Z,4.90
2018-08-03T15:26:12.191Z,5.87
2018-08-03T15:28:42.105Z,5.43
2018-08-03T15:31:11.340Z,5.40
2018-08-03T15:33:40.292Z,6.23
2018-08-03T15:36:09.864Z,5.50
2018-08-03T15:38:39.826Z,5.70
2018-08-03T15:41:08.750Z,5.30
2018-08-03T15:43:38.218Z,5.53
2018-08-03T15:47:26.751Z,5.27
2018-08-03T15:50:01.096Z,6.47
2018-08-03T15:52:36.239Z,5.67
2018-08-03T15:55:05.299Z,5.47
2018-08-03T15:57:34.371Z,5.40
2018-08-03T16:00:04.309Z,5.30
2018-08-03T16:02:33.361Z,4.90
2018-08-03T16:05:02.265Z,4.70
2018-08-03T16:07:39.112Z,5.47
2018-08-03T16:10:14.314Z,5.50
2018-08-03T16:12:43.548Z,5.30
2018-08-03T16:15:12.531Z,5.23
2018-08-03T16:17:41.478Z,5.30
2018-08-03T16:20:15.819Z,5.87
2018-08-03T16:22:51.727Z,5.03
2018-08-03T16:25:21.066Z,6.70
2018-08-03T16:27:56.752Z,5.60
2018-08-03T16:30:25.809Z,5.50
2018-08-03T16:32:55.105Z,5.13
2018-08-03T16:35:24.006Z,5.53
2018-08-03T16:37:58.200Z,5.10
2018-08-03T16:40:34.001Z,7.27
2018-08-03T16:43:02.997Z,19.33
2018-08-03T16:45:31.997Z,5.30
2018-08-03T16:48:01.216Z,15.20
2018-08-03T16:50:31.441Z,5.37
2018-08-03T16:53:00.349Z,5.03
2018-08-03T16:55:36.866Z,5.47
2018-08-03T16:58:15.783Z,5.73
2018-08-03T17:00:49.436Z,5.97
2018-08-03T17:03:24.104Z,6.13
2018-08-03T17:05:58.374Z,5.70
2018-08-03T17:08:38.238Z,6.20
2018-08-03T17:13:41.021Z,4.90
2018-08-03T17:16:10.354Z,5.90
2018-08-03T17:18:40.250Z,7.30
2018-08-03T17:21:09.748Z,6.13
2018-08-03T17:23:38.709Z,6.97
2018-08-03T17:26:07.649Z,6.33
2018-08-03T17:28:36.562Z,6.90
2018-08-03T17:31:12.492Z,7.90
2018-08-03T17:33:41.421Z,6.50
2018-08-03T17:36:10.317Z,6.97
2018-08-03T17:38:39.681Z,6.80
2018-08-03T17:41:08.825Z,6.97
2018-08-03T17:43:37.859Z,7.20
2018-08-03T17:46:16.404Z,7.00
2018-08-03T17:48:45.379Z,7.03
2018-08-03T17:51:14.260Z,8.20
2018-08-03T17:53:43.177Z,7.07
2018-08-03T17:56:17.984Z,7.57
2018-08-03T17:58:48.305Z,6.77
2018-08-03T18:02:37.322Z,6.60
2018-08-03T18:05:07.753Z,7.73
2018-08-03T18:07:36.870Z,7.80
2018-08-03T18:10:06.888Z,7.97
2018-08-03T18:12:36.591Z,7.70
2018-08-03T18:15:11.997Z,8.43
2018-08-03T18:20:36.027Z,8.60
2018-08-03T18:23:05.255Z,9.40
2018-08-03T18:25:34.200Z,8.70
2018-08-03T18:28:04.357Z,9.90
2018-08-03T18:30:38.327Z,8.17
2018-08-03T18:34:19.076Z,7.47
2018-08-03T18:36:48.132Z,8.00
2018-08-03T18:39:17.426Z,7.97
2018-08-03T18:41:53.513Z,9.63
2018-08-03T18:44:22.507Z,8.53
2018-08-03T18:47:00.168Z,9.00
2018-08-03T18:49:35.768Z,8.67
2018-08-03T18:52:04.643Z,8.60
2018-08-03T18:54:42.326Z,9.00
2018-08-03T18:57:11.258Z,8.63
2018-08-03T18:59:40.217Z,8.07
2018-08-03T19:02:09.446Z,7.43
2018-08-03T19:04:38.318Z,7.93
2018-08-03T19:07:07.281Z,8.47
2018-08-03T19:09:36.420Z,7.87
2018-08-03T19:12:05.374Z,8.47
2018-08-03T19:14:34.320Z,7.33
2018-08-03T19:17:03.524Z,8.10
2018-08-03T19:19:41.559Z,7.67
2018-08-03T19:22:10.716Z,7.90
2018-08-03T19:24:39.861Z,8.30
2018-08-03T19:27:17.638Z,8.07
2018-08-03T19:29:52.281Z,7.53
2018-08-03T19:32:28.029Z,7.90
2018-08-03T19:34:57.320Z,8.47
2018-08-03T19:37:26.416Z,8.50
2018-08-03T19:39:55.636Z,8.57
2018-08-03T19:42:24.945Z,8.77
2018-08-03T19:44:53.886Z,8.53
2018-08-03T19:47:22.870Z,8.40
2018-08-03T19:50:01.953Z,9.33
2018-08-03T19:52:31.065Z,8.53
2018-08-03T19:55:00.088Z,8.27
2018-08-03T19:57:38.656Z,8.60
2018-08-03T20:00:08.842Z,8.40
2018-08-03T20:02:43.309Z,8.53
2018-08-03T20:05:18.760Z,8.20
2018-08-03T20:07:48.252Z,8.67
2018-08-03T20:10:25.045Z,8.57
2018-08-03T20:12:54.010Z,8.33
2018-08-03T20:15:22.960Z,8.60
2018-08-03T20:17:51.861Z,8.80
2018-08-03T20:20:21.154Z,7.70
2018-08-03T20:22:50.100Z,8.47
2018-08-03T20:25:19.171Z,8.40
2018-08-03T20:28:01.669Z,9.00
2018-08-03T20:30:30.675Z,8.83
2018-08-03T20:32:59.942Z,8.50
2018-08-03T20:35:33.626Z,8.80
2018-08-03T20:38:02.613Z,9.70
2018-08-03T20:40:31.525Z,9.10
2018-08-03T20:43:00.451Z,9.20
2018-08-03T20:45:36.228Z,9.40
2018-08-03T20:48:06.037Z,8.90
2018-08-03T20:50:42.821Z,9.47
2018-08-03T20:53:18.700Z,9.40
2018-08-03T20:55:53.332Z,9.00
2018-08-03T20:58:27.888Z,8.60
2018-08-03T21:00:56.877Z,9.37
2018-08-03T21:03:29.300Z,9.60
2018-08-03T21:06:05.805Z,9.70
2018-08-03T21:08:35.709Z,10.30
2018-08-03T21:11:17.119Z,10.07
2018-08-03T21:13:46.909Z,9.30
2018-08-03T21:16:26.316Z,9.50
2018-08-03T21:19:03.860Z,9.87
2018-08-03T21:21:50.494Z,10.10
2018-08-03T21:24:20.233Z,9.40
2018-08-03T21:26:49.801Z,10.03
2018-08-03T21:29:19.977Z,10.00
2018-08-03T21:32:00.643Z,10.50
2018-08-03T21:34:30.515Z,10.37
2018-08-03T21:36:59.457Z,10.40
2018-08-03T21:39:35.385Z,10.47
2018-08-03T21:42:17.202Z,10.23
2018-08-03T21:44:52.050Z,11.00
2018-08-03T21:47:21.896Z,10.30
2018-08-03T21:49:50.915Z,9.47
2018-08-03T21:52:32.531Z,9.70
2018-08-03T21:55:08.634Z,9.77
2018-08-03T21:57:37.524Z,10.17
2018-08-03T22:00:10.237Z,9.03
2018-08-03T22:02:45.255Z,9.60
2018-08-03T22:05:14.557Z,9.53
2018-08-03T22:07:44.037Z,9.63
2018-08-03T22:10:20.854Z,9.20
2018-08-03T22:12:59.626Z,9.37
2018-08-03T22:15:40.199Z,9.20
2018-08-03T22:18:09.107Z,9.70
2018-08-03T22:20:38.355Z,9.37
2018-08-03T22:23:16.908Z,9.00
2018-08-03T22:25:46.351Z,9.47
2018-08-03T22:28:15.288Z,9.43
2018-08-03T22:30:44.187Z,9.30
2018-08-03T22:33:20.572Z,9.10
2018-08-03T22:35:49.389Z,10.13
2018-08-03T22:46:48.021Z,9.70
2018-08-03T22:49:17.200Z,9.43
2018-08-03T22:51:46.054Z,9.30
2018-08-03T22:54:14.999Z,9.53
2018-08-03T22:56:43.864Z,8.27
2018-08-03T22:59:13.816Z,9.33
2018-08-03T23:01:42.703Z,10.00
2018-08-03T23:04:11.615Z,9.00
2018-08-03T23:06:40.427Z,9.27
2018-08-03T23:09:16.650Z,8.80
2018-08-03T23:11:51.166Z,9.13
2018-08-03T23:14:20.089Z,9.50
2018-08-03T23:16:57.891Z,9.20
2018-08-03T23:19:27.645Z,9.67
2018-08-03T23:21:56.521Z,9.07
2018-08-03T23:24:25.329Z,9.93
2018-08-03T23:26:54.529Z,8.70
2018-08-03T23:29:29.208Z,9.13
2018-08-03T23:31:58.190Z,8.83
2018-08-03T23:34:44.379Z,9.70
2018-08-03T23:37:20.097Z,8.80
2018-08-03T23:39:54.802Z,9.83
2018-08-03T23:42:30.379Z,9.40
2018-08-03T23:44:59.677Z,9.47
2018-08-03T23:47:28.729Z,8.67
2018-08-03T23:49:57.641Z,9.00
2018-08-03T23:52:32.071Z,9.97
2018-08-03T23:55:00.916Z,9.20
2018-08-03T23:57:39.133Z,8.93
